createdAt,value
2023-01-25T00:01:07.916Z,30.17
2023-01-25T00:03:35.456Z,28.70
2023-01-25T00:06:02.751Z,26.70
2023-01-25T00:08:30.099Z,26.15
2023-01-25T00:10:58.576Z,24.63
2023-01-25T00:13:26.932Z,24.10
2023-01-25T00:15:54.144Z,22.33
2023-01-25T00:18:21.598Z,24.67
2023-01-25T00:20:48.723Z,23.50
2023-01-25T00:23:15.988Z,27.85
2023-01-25T00:25:43.429Z,24.15
2023-01-25T00:28:10.587Z,26.90
2023-01-25T00:30:37.740Z,26.05
2023-01-25T00:33:52.536Z,25.52
2023-01-25T00:36:33.537Z,22.85
2023-01-25T00:39:01.039Z,22.77
2023-01-25T00:41:28.261Z,32.53
2023-01-25T00:43:55.765Z,22.58
2023-01-25T00:46:23.420Z,21.98
2023-01-25T00:48:53.911Z,25.40
2023-01-25T00:51:21.967Z,22.90
2023-01-25T00:53:49.576Z,24.37
2023-01-25T00:56:17.098Z,19.20
2023-01-25T00:58:44.271Z,19.60
2023-01-25T01:01:12.357Z,20.58
2023-01-25T01:03:43.486Z,22.13
2023-01-25T01:06:12.522Z,19.37
2023-01-25T01:08:40.950Z,18.73
2023-01-25T01:11:12.778Z,19.92
2023-01-25T01:13:40.582Z,18.85
2023-01-25T01:16:11.331Z,17.23
2023-01-25T01:18:44.257Z,16.50
2023-01-25T01:21:12.860Z,14.95
2023-01-25T01:23:40.235Z,18.05
2023-01-25T01:26:10.627Z,17.17
2023-01-25T01:28:40.974Z,15.63
2023-01-25T01:31:20.623Z,14.95
2023-01-25T01:33:50.645Z,13.98
2023-01-25T01:36:19.215Z,12.90
2023-01-25T01:38:47.038Z,15.88
2023-01-25T01:41:15.664Z,13.60
2023-01-25T01:43:43.265Z,13.82
2023-01-25T01:46:10.613Z,16.85
2023-01-25T01:48:57.318Z,12.95
2023-01-25T01:51:24.701Z,19.00
2023-01-25T01:53:58.837Z,19.00
2023-01-25T01:56:47.039Z,18.42
2023-01-25T01:59:14.577Z,20.85
2023-01-25T02:01:41.998Z,20.15
2023-01-25T02:04:09.550Z,19.50
2023-01-25T02:06:44.719Z,19.98
2023-01-25T02:09:14.862Z,16.50
2023-01-25T02:11:42.107Z,21.77
2023-01-25T02:14:09.463Z,19.02
2023-01-25T02:16:37.009Z,20.02
2023-01-25T02:19:05.167Z,18.65
2023-01-25T02:21:40.008Z,18.30
2023-01-25T02:24:29.602Z,14.40
2023-01-25T02:26:57.208Z,14.75
2023-01-25T02:29:26.371Z,13.45
2023-01-25T02:32:02.941Z,17.48
2023-01-25T02:34:30.404Z,21.12
2023-01-25T02:36:57.949Z,17.35
2023-01-25T02:39:26.680Z,18.10
2023-01-25T02:41:54.231Z,16.73
2023-01-25T02:44:22.201Z,17.23
2023-01-25T02:46:49.393Z,13.88
2023-01-25T02:49:17.645Z,12.90
2023-01-25T02:51:47.597Z,15.63
2023-01-25T02:54:16.916Z,12.85
2023-01-25T02:56:44.452Z,39.83
2023-01-25T02:59:13.484Z,34.22
2023-01-25T03:01:43.597Z,16.37
2023-01-25T03:04:11.415Z,17.02
2023-01-25T03:06:38.850Z,18.70
2023-01-25T03:09:09.519Z,39.15
2023-01-25T03:11:38.140Z,12.00
2023-01-25T03:14:05.587Z,11.12
2023-01-25T03:16:33.846Z,12.23
2023-01-25T03:19:01.867Z,11.00
2023-01-25T03:21:29.303Z,11.25
2023-01-25T03:23:59.671Z,12.52
2023-01-25T03:26:29.618Z,11.95
2023-01-25T03:28:57.939Z,11.68
2023-01-25T03:31:25.273Z,13.62
2023-01-25T03:33:52.863Z,13.93
2023-01-25T03:36:21.718Z,12.60
2023-01-25T03:38:48.940Z,13.15
2023-01-25T03:41:16.401Z,13.00
2023-01-25T03:43:44.984Z,16.80
2023-01-25T03:46:16.622Z,19.67
2023-01-25T03:48:44.176Z,21.92
2023-01-25T03:51:11.503Z,16.25
2023-01-25T03:53:38.672Z,17.27
2023-01-25T03:56:09.031Z,21.33
2023-01-25T03:58:37.967Z,11.30
2023-01-25T04:01:07.136Z,10.82
2023-01-25T04:03:35.266Z,9.35
2023-01-25T04:06:02.870Z,10.80
2023-01-25T04:08:30.580Z,10.13
2023-01-25T04:11:05.483Z,9.88
2023-01-25T04:13:35.302Z,10.07
2023-01-25T04:16:07.433Z,12.63
2023-01-25T04:18:37.343Z,15.88
2023-01-25T04:21:04.921Z,26.25
2023-01-25T04:23:32.415Z,17.60
2023-01-25T04:26:06.027Z,19.20
2023-01-25T04:28:34.787Z,21.73
2023-01-25T04:31:03.661Z,14.38
2023-01-25T04:33:32.099Z,50.60
2023-01-25T04:36:00.044Z,16.90
2023-01-25T04:38:27.365Z,11.75
2023-01-25T04:40:54.687Z,11.90
2023-01-25T04:43:22.939Z,11.27
2023-01-25T04:45:51.395Z,9.82
2023-01-25T04:48:19.432Z,9.40
2023-01-25T04:50:47.113Z,10.82
2023-01-25T04:53:14.534Z,12.48
2023-01-25T04:55:47.815Z,11.80
2023-01-25T04:58:15.819Z,11.17
2023-01-25T05:00:43.541Z,12.70
2023-01-25T05:03:11.279Z,11.20
2023-01-25T05:05:38.775Z,11.00
2023-01-25T05:08:06.729Z,11.25
2023-01-25T05:10:34.695Z,15.55
2023-01-25T05:13:05.991Z,15.05
2023-01-25T05:15:33.362Z,13.38
2023-01-25T05:18:00.647Z,11.25
2023-01-25T05:20:28.459Z,11.43
2023-01-25T05:22:55.884Z,11.35
2023-01-25T05:25:41.906Z,11.27
2023-01-25T05:28:09.893Z,11.52
2023-01-25T05:30:38.615Z,11.23
2023-01-25T05:33:06.239Z,11.73
2023-01-25T05:35:33.697Z,10.77
2023-01-25T05:38:00.897Z,11.12
2023-01-25T05:40:28.387Z,13.88
2023-01-25T05:43:00.026Z,15.70
2023-01-25T05:45:30.088Z,20.60
2023-01-25T05:47:58.787Z,16.67
2023-01-25T05:50:27.070Z,15.23
2023-01-25T05:52:54.571Z,15.15
2023-01-25T05:55:22.191Z,16.48
2023-01-25T05:57:51.137Z,15.38
2023-01-25T06:00:18.721Z,16.73
2023-01-25T06:02:46.288Z,16.50
2023-01-25T06:05:14.360Z,17.17
2023-01-25T06:07:41.625Z,16.30
2023-01-25T06:10:09.683Z,14.15
2023-01-25T06:12:37.025Z,14.75
2023-01-25T06:15:04.577Z,15.15
2023-01-25T06:17:32.743Z,16.25
2023-01-25T06:20:00.177Z,20.85
2023-01-25T06:22:27.843Z,18.48
2023-01-25T06:24:55.275Z,26.20
2023-01-25T06:27:22.909Z,25.55
2023-01-25T06:29:50.468Z,36.83
2023-01-25T06:32:17.993Z,49.28
2023-01-25T06:34:46.392Z,60.30
2023-01-25T06:37:16.394Z,41.20
2023-01-25T06:39:43.872Z,40.97
2023-01-25T06:42:11.031Z,33.45
2023-01-25T06:44:38.261Z,26.23
2023-01-25T06:47:08.914Z,23.38
2023-01-25T06:49:36.093Z,27.30
2023-01-25T06:52:03.416Z,26.58
2023-01-25T06:54:30.873Z,28.08
2023-01-25T06:56:58.053Z,26.77
2023-01-25T06:59:25.599Z,28.50
2023-01-25T07:01:53.107Z,22.48
2023-01-25T07:04:20.358Z,20.62
2023-01-25T07:06:47.520Z,24.40
2023-01-25T07:09:23.712Z,23.67
2023-01-25T07:11:51.631Z,21.20
2023-01-25T07:14:19.206Z,22.20
2023-01-25T07:16:46.364Z,23.58
2023-01-25T07:19:13.671Z,23.27
2023-01-25T07:21:41.184Z,27.83
2023-01-25T07:24:08.369Z,26.58
2023-01-25T07:26:35.511Z,23.10
2023-01-25T07:29:02.941Z,23.48
2023-01-25T07:31:30.324Z,22.85
2023-01-25T07:33:58.509Z,22.80
2023-01-25T07:36:26.299Z,23.90
2023-01-25T07:38:57.688Z,23.20
2023-01-25T07:41:25.559Z,26.83
2023-01-25T07:43:53.311Z,23.45
2023-01-25T07:46:21.556Z,24.42
2023-01-25T07:48:50.566Z,13.32
2023-01-25T07:51:23.202Z,13.25
2023-01-25T07:54:00.452Z,10.93
2023-01-25T07:56:32.976Z,13.88
2023-01-25T07:59:02.888Z,10.50
2023-01-25T08:01:34.299Z,12.52
2023-01-25T08:04:03.372Z,10.90
2023-01-25T08:06:36.224Z,11.15
2023-01-25T08:09:06.992Z,11.93
2023-01-25T08:11:34.821Z,10.38
2023-01-25T08:14:03.181Z,11.68
2023-01-25T08:16:31.853Z,11.43
2023-01-25T08:19:01.036Z,10.27
2023-01-25T08:21:32.211Z,9.70
2023-01-25T08:24:01.100Z,9.50
2023-01-25T08:26:31.070Z,8.27
2023-01-25T08:28:58.498Z,8.73
2023-01-25T08:31:28.635Z,8.35
2023-01-25T08:33:56.486Z,8.25
2023-01-25T08:36:24.363Z,9.15
2023-01-25T08:39:06.652Z,8.90
2023-01-25T08:41:35.438Z,7.70
2023-01-25T08:44:03.197Z,9.00
2023-01-25T08:46:33.160Z,8.88
2023-01-25T08:49:01.986Z,9.57
2023-01-25T08:51:31.594Z,9.52
2023-01-25T08:54:03.819Z,8.70
2023-01-25T08:56:31.486Z,9.70
2023-01-25T08:58:58.560Z,9.90
2023-01-25T09:01:25.745Z,10.48
2023-01-25T09:03:54.334Z,9.88
2023-01-25T09:06:21.492Z,9.52
2023-01-25T09:08:48.632Z,9.20
2023-01-25T09:11:18.601Z,11.05
2023-01-25T09:13:46.292Z,8.68
2023-01-25T09:16:16.026Z,8.80
2023-01-25T09:18:44.647Z,9.90
2023-01-25T09:21:14.518Z,10.27
2023-01-25T09:23:50.985Z,9.73
2023-01-25T09:26:25.565Z,9.20
2023-01-25T09:28:54.563Z,8.90
2023-01-25T09:31:23.878Z,8.82
2023-01-25T09:33:52.829Z,9.02
2023-01-25T09:36:20.691Z,8.40
2023-01-25T09:38:48.597Z,7.75
2023-01-25T09:41:38.851Z,9.00
2023-01-25T09:44:28.362Z,9.18
2023-01-25T09:47:21.357Z,8.35
2023-01-25T09:50:10.873Z,10.90
2023-01-25T09:52:51.267Z,10.75
2023-01-25T09:55:21.199Z,9.27
2023-01-25T09:57:50.974Z,10.07
2023-01-25T10:00:21.564Z,11.25
2023-01-25T10:02:57.236Z,9.18
2023-01-25T10:05:28.451Z,9.55
2023-01-25T10:08:25.996Z,10.82
2023-01-25T10:11:02.384Z,8.02
2023-01-25T10:13:31.832Z,9.35
2023-01-25T10:16:09.929Z,11.77
2023-01-25T10:18:51.875Z,10.13
2023-01-25T10:21:32.684Z,10.25
2023-01-25T10:24:17.569Z,10.23
2023-01-25T10:26:50.514Z,10.93
2023-01-25T10:29:18.970Z,8.93
2023-01-25T10:31:53.374Z,9.95
2023-01-25T10:34:31.875Z,9.63
2023-01-25T10:37:23.377Z,9.68
2023-01-25T10:39:59.275Z,10.07
2023-01-25T10:42:27.775Z,9.43
2023-01-25T10:44:55.418Z,9.15
2023-01-25T10:47:28.063Z,10.15
2023-01-25T10:49:57.044Z,10.30
2023-01-25T10:52:27.938Z,10.85
2023-01-25T10:55:17.857Z,10.60
2023-01-25T10:57:50.499Z,9.98
2023-01-25T11:00:37.930Z,9.57
2023-01-25T11:03:06.107Z,12.73
2023-01-25T11:05:35.512Z,10.50
2023-01-25T11:08:26.776Z,9.68
2023-01-25T11:10:54.476Z,10.60
2023-01-25T11:13:29.511Z,11.52
2023-01-25T11:16:35.051Z,10.63
2023-01-25T11:19:03.922Z,10.15
2023-01-25T11:21:33.703Z,8.73
2023-01-25T11:24:07.249Z,10.52
2023-01-25T11:26:37.087Z,11.75
2023-01-25T11:29:22.590Z,10.73
2023-01-25T11:31:55.535Z,10.40
2023-01-25T11:34:25.947Z,11.02
2023-01-25T11:37:20.610Z,10.90
2023-01-25T11:39:55.815Z,10.45
2023-01-25T11:42:42.840Z,9.80
2023-01-25T11:45:29.601Z,11.12
2023-01-25T11:48:17.211Z,9.95
2023-01-25T11:51:14.083Z,9.73
2023-01-25T11:53:56.156Z,10.00
2023-01-25T11:56:23.174Z,11.90
2023-01-25T11:59:16.982Z,10.43
2023-01-25T12:02:23.696Z,12.85
2023-01-25T12:05:21.867Z,10.82
2023-01-25T12:08:01.449Z,10.43
2023-01-25T12:10:44.313Z,11.02
2023-01-25T12:13:20.566Z,9.88
2023-01-25T12:16:07.197Z,10.25
2023-01-25T12:18:44.689Z,9.23
2023-01-25T12:21:56.687Z,10.48
2023-01-25T12:24:49.953Z,10.82
2023-01-25T12:27:36.584Z,10.27
2023-01-25T12:30:27.211Z,11.20
2023-01-25T12:33:18.152Z,10.70
2023-01-25T12:36:11.926Z,10.75
2023-01-25T12:38:49.574Z,10.55
2023-01-25T12:41:52.022Z,11.60
2023-01-25T12:44:25.931Z,11.12
2023-01-25T12:47:02.270Z,11.15
2023-01-25T12:49:54.485Z,10.70
2023-01-25T12:52:28.144Z,10.55
2023-01-25T12:54:57.742Z,11.05
2023-01-25T12:57:28.657Z,9.90
2023-01-25T13:00:04.770Z,9.88
2023-01-25T13:03:11.110Z,10.57
2023-01-25T13:05:48.578Z,9.85
2023-01-25T13:08:31.873Z,10.38
2023-01-25T13:11:20.674Z,9.60
2023-01-25T13:13:48.014Z,9.70
2023-01-25T13:16:30.748Z,9.85
2023-01-25T13:18:58.635Z,9.85
2023-01-25T13:21:42.502Z,9.40
2023-01-25T13:24:13.974Z,10.30
2023-01-25T13:26:48.682Z,11.25
2023-01-25T13:29:40.347Z,9.00
2023-01-25T13:32:13.147Z,10.38
2023-01-25T13:34:44.254Z,9.98
2023-01-25T13:37:32.088Z,10.73
2023-01-25T13:40:06.458Z,10.05
2023-01-25T13:42:36.388Z,9.07
2023-01-25T13:45:20.629Z,9.35
2023-01-25T13:50:34.296Z,9.27
2023-01-25T13:53:17.352Z,10.35
2023-01-25T13:55:55.029Z,9.40
2023-01-25T13:58:24.924Z,8.70
2023-01-25T14:00:57.876Z,9.82
2023-01-25T14:03:34.048Z,9.10
2023-01-25T14:06:06.070Z,8.95
2023-01-25T14:08:33.886Z,8.63
2023-01-25T14:11:01.137Z,8.40
2023-01-25T14:13:28.327Z,8.32
2023-01-25T14:16:05.284Z,9.13
2023-01-25T14:18:33.355Z,10.07
2023-01-25T14:21:18.262Z,9.13
2023-01-25T14:26:25.006Z,8.48
2023-01-25T14:29:01.407Z,9.25
2023-01-25T14:31:35.709Z,8.63
2023-01-25T14:34:04.974Z,9.18
2023-01-25T14:36:36.991Z,9.75
2023-01-25T14:39:15.081Z,10.73
2023-01-25T14:41:59.900Z,13.52
2023-01-25T14:44:29.039Z,13.23
2023-01-25T14:47:22.786Z,11.95
2023-01-25T14:49:50.191Z,11.23
2023-01-25T14:52:20.679Z,11.65
2023-01-25T14:54:53.283Z,11.70
2023-01-25T14:57:29.447Z,12.55
2023-01-25T14:59:57.261Z,11.93
2023-01-25T15:02:46.499Z,12.02
2023-01-25T15:05:22.010Z,13.62
2023-01-25T15:07:54.763Z,13.35
2023-01-25T15:10:27.703Z,12.35
2023-01-25T15:13:14.197Z,11.70
2023-01-25T15:16:02.928Z,14.20
2023-01-25T15:18:54.966Z,14.93
2023-01-25T15:21:32.200Z,12.40
2023-01-25T15:24:04.794Z,14.02
2023-01-25T15:26:33.753Z,12.13
2023-01-25T15:29:05.084Z,12.20
2023-01-25T15:31:34.280Z,12.85
2023-01-25T15:34:02.180Z,12.30
2023-01-25T15:36:30.663Z,12.13
2023-01-25T15:38:57.891Z,13.07
2023-01-25T15:41:25.395Z,11.95
2023-01-25T15:43:52.589Z,12.82
2023-01-25T15:46:22.821Z,13.65
2023-01-25T15:48:51.438Z,15.93
2023-01-25T15:51:18.976Z,13.48
2023-01-25T15:53:47.040Z,15.52
2023-01-25T15:56:22.421Z,12.57
2023-01-25T15:58:52.692Z,14.50
2023-01-25T16:01:21.270Z,12.32
2023-01-25T16:03:48.742Z,13.85
2023-01-25T16:06:31.264Z,14.02
2023-01-25T16:09:00.634Z,12.45
2023-01-25T16:11:27.882Z,11.45
2023-01-25T16:13:55.156Z,13.13
2023-01-25T16:16:24.530Z,12.93
2023-01-25T16:18:51.787Z,12.52
2023-01-25T16:21:18.997Z,13.48
2023-01-25T16:23:46.540Z,12.55
2023-01-25T16:26:24.861Z,13.85
2023-01-25T16:28:52.381Z,16.60
2023-01-25T16:31:31.821Z,17.17
2023-01-25T16:34:00.909Z,17.70
2023-01-25T16:36:28.643Z,16.90
2023-01-25T16:38:56.035Z,15.27
2023-01-25T16:41:23.532Z,15.45
2023-01-25T16:43:53.522Z,14.32
2023-01-25T16:46:23.562Z,14.98
2023-01-25T16:48:52.466Z,15.70
2023-01-25T16:51:22.936Z,15.85
2023-01-25T16:53:51.999Z,14.18
2023-01-25T16:56:31.043Z,15.32
2023-01-25T16:59:01.542Z,14.07
2023-01-25T17:01:28.682Z,13.80
2023-01-25T17:03:56.151Z,14.00
2023-01-25T17:06:28.882Z,15.80
2023-01-25T17:08:58.900Z,17.40
2023-01-25T17:11:26.452Z,17.35
2023-01-25T17:13:56.234Z,17.62
2023-01-25T17:16:26.323Z,16.25
2023-01-25T17:18:58.752Z,16.15
2023-01-25T17:21:26.629Z,25.25
2023-01-25T17:23:55.490Z,28.95
2023-01-25T17:26:23.672Z,37.08
2023-01-25T17:28:51.505Z,30.48
2023-01-25T17:31:24.275Z,26.40
2023-01-25T17:33:52.046Z,23.17
2023-01-25T17:36:19.924Z,23.80
2023-01-25T17:38:47.492Z,28.45
2023-01-25T17:41:16.441Z,26.85
2023-01-25T17:43:44.212Z,24.80
2023-01-25T17:46:29.607Z,25.50
2023-01-25T17:48:58.052Z,21.05
2023-01-25T17:51:26.267Z,24.50
2023-01-25T17:53:53.703Z,25.62
2023-01-25T17:56:21.294Z,23.65
2023-01-25T17:58:48.471Z,20.55
2023-01-25T18:01:23.814Z,25.02
2023-01-25T18:03:53.433Z,25.12
2023-01-25T18:06:24.927Z,26.70
2023-01-25T18:08:54.683Z,23.80
2023-01-25T18:11:24.837Z,22.95
2023-01-25T18:13:54.644Z,41.88
2023-01-25T18:16:23.215Z,45.12
2023-01-25T18:18:52.329Z,37.97
2023-01-25T18:21:26.392Z,26.37
2023-01-25T18:24:33.207Z,24.48
2023-01-25T18:27:20.255Z,21.58
2023-01-25T18:29:54.404Z,22.05
2023-01-25T18:32:22.170Z,23.80
2023-01-25T18:34:49.708Z,22.87
2023-01-25T18:37:29.496Z,21.73
2023-01-25T18:39:57.189Z,23.58
2023-01-25T18:42:26.269Z,24.17
2023-01-25T18:44:53.862Z,24.85
2023-01-25T18:47:22.634Z,24.77
2023-01-25T18:49:51.533Z,25.42
2023-01-25T18:52:20.394Z,31.70
2023-01-25T18:54:47.865Z,32.78
2023-01-25T18:57:15.569Z,37.90
2023-01-25T18:59:44.281Z,30.90
2023-01-25T19:02:13.323Z,31.98
2023-01-25T19:04:41.153Z,26.85
2023-01-25T19:07:08.673Z,22.37
2023-01-25T19:09:36.129Z,24.95
2023-01-25T19:12:03.735Z,25.75
2023-01-25T19:14:30.945Z,37.13
2023-01-25T19:16:58.371Z,26.70
2023-01-25T19:19:31.747Z,23.65
2023-01-25T19:21:59.965Z,22.83
2023-01-25T19:24:27.485Z,18.50
2023-01-25T19:26:56.960Z,20.02
2023-01-25T19:29:24.425Z,18.77
2023-01-25T19:31:51.726Z,17.40
2023-01-25T19:34:18.928Z,18.65
2023-01-25T19:36:50.159Z,17.50
2023-01-25T19:39:17.961Z,18.52
2023-01-25T19:41:48.305Z,21.37
2023-01-25T19:44:18.314Z,24.67
2023-01-25T19:46:45.501Z,24.00
2023-01-25T19:49:16.227Z,26.40
2023-01-25T19:51:47.888Z,30.55
2023-01-25T19:54:18.559Z,26.62
2023-01-25T19:56:48.496Z,22.67
2023-01-25T19:59:21.142Z,22.27
2023-01-25T20:01:48.967Z,28.42
2023-01-25T20:04:19.818Z,27.35
2023-01-25T20:06:48.901Z,36.55
2023-01-25T20:09:18.434Z,32.80
2023-01-25T20:11:47.333Z,23.25
2023-01-25T20:14:14.855Z,30.25
2023-01-25T20:16:42.935Z,25.95
2023-01-25T20:19:13.222Z,20.35
2023-01-25T20:21:40.413Z,25.40
2023-01-25T20:24:10.960Z,26.70
2023-01-25T20:26:39.668Z,28.12
2023-01-25T20:29:07.568Z,26.02
2023-01-25T20:31:37.073Z,24.23
2023-01-25T20:34:07.386Z,22.65
2023-01-25T20:36:35.820Z,22.37
2023-01-25T20:39:03.796Z,20.42
2023-01-25T20:41:31.190Z,17.25
2023-01-25T20:44:07.142Z,16.10
2023-01-25T20:46:37.334Z,19.75
2023-01-25T20:49:18.079Z,22.90
2023-01-25T20:51:46.553Z,29.25
2023-01-25T20:54:14.279Z,41.95
2023-01-25T20:56:42.919Z,20.67
2023-01-25T20:59:10.379Z,23.45
2023-01-25T21:01:38.042Z,17.92
2023-01-25T21:04:07.415Z,16.55
2023-01-25T21:06:40.815Z,15.90
2023-01-25T21:09:07.916Z,16.65
2023-01-25T21:11:35.397Z,19.62
2023-01-25T21:14:02.788Z,23.42
2023-01-25T21:16:30.219Z,27.92
2023-01-25T21:19:00.102Z,21.87
2023-01-25T21:21:31.967Z,21.25
2023-01-25T21:24:02.418Z,23.73
2023-01-25T21:26:34.386Z,22.55
2023-01-25T21:29:02.509Z,22.30
2023-01-25T21:31:42.346Z,24.65
2023-01-25T21:34:10.244Z,28.60
2023-01-25T21:36:40.236Z,48.85
2023-01-25T21:39:07.451Z,33.80
2023-01-25T21:41:36.046Z,61.05
2023-01-25T21:44:22.470Z,35.20
2023-01-25T21:47:16.415Z,45.50
2023-01-25T21:49:55.775Z,30.67
2023-01-25T21:52:23.196Z,32.08
2023-01-25T21:54:50.280Z,35.60
2023-01-25T21:57:17.426Z,26.50
2023-01-25T21:59:44.846Z,26.95
2023-01-25T22:02:14.527Z,28.83
2023-01-25T22:04:42.011Z,29.92
2023-01-25T22:07:09.819Z,30.42
2023-01-25T22:09:36.956Z,37.60
2023-01-25T22:12:04.577Z,27.30
2023-01-25T22:14:31.726Z,25.92
2023-01-25T22:16:58.913Z,25.52
2023-01-25T22:19:26.402Z,25.92
2023-01-25T22:21:53.537Z,26.08
2023-01-25T22:24:20.927Z,27.52
2023-01-25T22:26:51.726Z,22.92
2023-01-25T22:29:18.806Z,23.38
2023-01-25T22:31:45.884Z,21.65
2023-01-25T22:34:13.356Z,20.05
2023-01-25T22:36:40.456Z,18.83
2023-01-25T22:39:07.705Z,19.00
2023-01-25T22:41:37.453Z,18.92
2023-01-25T22:44:04.906Z,19.60
2023-01-25T22:46:32.019Z,20.02
2023-01-25T22:48:59.544Z,21.67
2023-01-25T22:51:28.747Z,24.92
2023-01-25T22:53:57.040Z,26.35
2023-01-25T22:56:32.012Z,21.37
2023-01-25T22:58:59.958Z,19.27
2023-01-25T23:01:32.349Z,18.15
2023-01-25T23:04:00.455Z,19.67
2023-01-25T23:06:29.903Z,25.58
2023-01-25T23:08:59.909Z,22.98
2023-01-25T23:11:32.345Z,19.35
2023-01-25T23:14:18.795Z,21.42
2023-01-25T23:16:47.225Z,19.65
2023-01-25T23:19:14.549Z,18.92
2023-01-25T23:21:42.318Z,19.33
2023-01-25T23:24:10.096Z,20.42
2023-01-25T23:26:46.243Z,20.42
2023-01-25T23:29:14.487Z,19.30
2023-01-25T23:31:41.784Z,18.98
2023-01-25T23:34:11.315Z,19.15
2023-01-25T23:36:39.621Z,18.55
2023-01-25T23:39:06.868Z,18.98
2023-01-25T23:41:34.139Z,18.83
2023-01-25T23:44:01.971Z,18.45
2023-01-25T23:46:29.278Z,18.02
2023-01-25T23:48:56.416Z,17.92
2023-01-25T23:51:23.810Z,19.12
2023-01-25T23:53:53.375Z,18.27
2023-01-25T23:56:21.909Z,15.43
